createdAt,value
2018-09-27T00:00:57.710Z,2.90
2018-09-27T00:03:27.018Z,4.80
2018-09-27T00:05:56.505Z,3.22
2018-09-27T00:08:25.757Z,2.42
2018-09-27T00:10:54.952Z,3.02
2018-09-27T00:13:24.153Z,2.77
2018-09-27T00:15:53.341Z,3.02
2018-09-27T00:18:22.549Z,2.83
2018-09-27T00:20:51.769Z,3.70
2018-09-27T00:23:21.017Z,2.90
2018-09-27T00:25:50.224Z,2.30
2018-09-27T00:28:19.441Z,2.60
2018-09-27T00:30:48.717Z,2.33
2018-09-27T00:33:17.938Z,2.42
2018-09-27T00:35:47.115Z,3.22
2018-09-27T00:38:16.739Z,2.10
2018-09-27T00:40:46.181Z,3.02
2018-09-27T00:43:15.402Z,2.25
2018-09-27T00:45:45.089Z,3.15
2018-09-27T00:48:16.240Z,2.80
2018-09-27T00:50:46.058Z,3.17
2018-09-27T00:53:15.278Z,2.85
2018-09-27T00:55:44.477Z,3.58
2018-09-27T00:58:13.676Z,2.40
2018-09-27T01:00:42.869Z,3.67
2018-09-27T01:03:12.091Z,3.20
2018-09-27T01:05:41.272Z,2.52
2018-09-27T01:08:10.499Z,3.33
2018-09-27T01:10:39.714Z,2.65
2018-09-27T01:13:08.956Z,3.77
2018-09-27T01:15:38.244Z,2.95
2018-09-27T01:18:07.641Z,3.67
2018-09-27T01:20:36.866Z,3.12
2018-09-27T01:23:06.095Z,3.00
2018-09-27T01:25:35.302Z,2.65
2018-09-27T01:28:04.521Z,2.67
2018-09-27T01:30:33.733Z,4.45
2018-09-27T01:33:02.962Z,3.55
2018-09-27T01:35:32.160Z,2.98
2018-09-27T01:38:01.376Z,2.50
2018-09-27T01:40:30.581Z,4.60
2018-09-27T01:42:59.806Z,3.02
2018-09-27T01:45:29.004Z,2.90
2018-09-27T01:47:58.237Z,3.05
2018-09-27T01:50:27.452Z,3.67
2018-09-27T01:52:56.672Z,4.05
2018-09-27T01:55:25.885Z,2.62
2018-09-27T01:57:55.116Z,3.42
2018-09-27T02:00:24.341Z,3.75
2018-09-27T02:02:53.566Z,3.25
2018-09-27T02:05:22.829Z,3.80
2018-09-27T02:07:52.333Z,2.30
2018-09-27T02:10:21.525Z,3.72
2018-09-27T02:12:50.762Z,2.98
2018-09-27T02:15:20.012Z,2.65
2018-09-27T02:17:49.252Z,3.15
2018-09-27T02:20:18.457Z,2.30
2018-09-27T02:22:47.700Z,3.40
2018-09-27T02:25:16.933Z,2.65
2018-09-27T02:27:46.161Z,3.55
2018-09-27T02:30:15.338Z,3.37
2018-09-27T02:32:44.562Z,3.47
2018-09-27T02:35:13.770Z,2.55
2018-09-27T02:37:42.973Z,3.12
2018-09-27T02:40:12.455Z,3.05
2018-09-27T02:42:41.639Z,3.22
2018-09-27T02:45:10.839Z,2.72
2018-09-27T02:47:40.035Z,3.45
2018-09-27T02:50:09.239Z,4.05
2018-09-27T02:52:38.464Z,5.62
2018-09-27T02:55:07.718Z,3.30
2018-09-27T02:57:36.960Z,3.37
2018-09-27T03:00:06.183Z,4.00
2018-09-27T03:02:35.393Z,2.40
2018-09-27T03:05:05.143Z,2.62
2018-09-27T03:07:34.317Z,2.52
2018-09-27T03:10:03.761Z,3.87
2018-09-27T03:12:33.096Z,2.45
2018-09-27T03:15:02.327Z,4.08
2018-09-27T03:17:31.500Z,2.67
2018-09-27T03:20:00.702Z,4.22
2018-09-27T03:22:29.877Z,3.22
2018-09-27T03:24:59.066Z,3.27
2018-09-27T03:27:28.257Z,3.65
2018-09-27T03:29:57.511Z,3.05
2018-09-27T03:32:26.683Z,2.00
2018-09-27T03:34:55.881Z,3.12
2018-09-27T03:37:25.211Z,3.20
2018-09-27T03:39:54.428Z,2.83
2018-09-27T03:42:23.598Z,3.85
2018-09-27T03:44:52.799Z,4.40
2018-09-27T03:47:21.971Z,3.87
2018-09-27T03:49:51.195Z,3.25
2018-09-27T03:52:20.364Z,3.10
2018-09-27T03:54:49.536Z,2.95
2018-09-27T03:57:18.731Z,4.17
2018-09-27T03:59:47.932Z,3.75
2018-09-27T04:02:17.108Z,3.52
2018-09-27T04:04:46.325Z,2.98
2018-09-27T04:07:15.487Z,2.22
2018-09-27T04:09:44.674Z,2.87
2018-09-27T04:12:13.842Z,2.92
2018-09-27T04:14:43.034Z,3.60
2018-09-27T04:17:12.207Z,3.33
2018-09-27T04:19:41.429Z,4.92
2018-09-27T04:22:10.603Z,3.33
2018-09-27T04:24:39.839Z,3.85
2018-09-27T04:27:09.006Z,3.02
2018-09-27T04:29:38.200Z,3.67
2018-09-27T04:32:07.379Z,4.45
2018-09-27T04:34:36.581Z,4.70
2018-09-27T04:37:05.751Z,3.08
2018-09-27T04:39:34.939Z,3.08
2018-09-27T04:42:04.147Z,3.27
2018-09-27T04:44:33.362Z,3.80
2018-09-27T04:47:02.551Z,3.90
2018-09-27T04:49:31.737Z,4.40
2018-09-27T04:52:00.946Z,3.50
2018-09-27T04:54:30.193Z,3.98
2018-09-27T04:56:59.357Z,4.40
2018-09-27T04:59:28.555Z,3.77
2018-09-27T05:01:57.873Z,4.80
2018-09-27T05:04:27.121Z,5.70
2018-09-27T05:06:56.302Z,3.85
2018-09-27T05:09:25.516Z,4.05
2018-09-27T05:11:54.701Z,3.52
2018-09-27T05:14:23.894Z,3.65
2018-09-27T05:16:53.081Z,2.62
2018-09-27T05:19:22.314Z,6.47
2018-09-27T05:21:51.507Z,3.98
2018-09-27T05:24:20.712Z,2.87
2018-09-27T05:26:49.901Z,3.85
2018-09-27T05:29:19.098Z,4.67
2018-09-27T05:31:48.275Z,3.08
2018-09-27T05:34:17.460Z,5.22
2018-09-27T05:36:46.647Z,3.90
2018-09-27T05:39:15.864Z,5.15
2018-09-27T05:41:45.067Z,3.50
2018-09-27T05:44:14.286Z,3.80
2018-09-27T05:46:43.474Z,3.90
2018-09-27T05:49:12.829Z,3.72
2018-09-27T05:51:42.153Z,4.87
2018-09-27T05:54:11.302Z,7.20
2018-09-27T05:56:40.761Z,3.80
2018-09-27T05:59:09.994Z,3.17
2018-09-27T06:01:39.203Z,4.80
2018-09-27T06:04:08.407Z,4.67
2018-09-27T06:06:37.647Z,4.30
2018-09-27T06:09:10.581Z,11.50
2018-09-27T06:11:39.751Z,6.17
2018-09-27T06:14:09.010Z,3.60
2018-09-27T06:16:39.195Z,5.20
2018-09-27T06:19:08.953Z,5.45
2018-09-27T06:21:38.318Z,3.40
2018-09-27T06:24:07.688Z,5.90
2018-09-27T06:26:36.895Z,6.22
2018-09-27T06:29:06.145Z,8.13
2018-09-27T06:31:35.323Z,8.90
2018-09-27T06:34:04.507Z,8.05
2018-09-27T06:36:33.749Z,8.35
2018-09-27T06:39:02.947Z,4.33
2018-09-27T06:41:32.167Z,6.70
2018-09-27T06:44:01.347Z,7.35
2018-09-27T06:46:30.541Z,5.67
2018-09-27T06:48:59.734Z,7.35
2018-09-27T06:51:28.935Z,7.72
2018-09-27T06:53:58.140Z,5.15
2018-09-27T06:56:27.402Z,5.83
2018-09-27T06:58:56.546Z,4.92
2018-09-27T07:01:25.739Z,4.45
2018-09-27T07:03:54.924Z,5.53
2018-09-27T07:06:24.160Z,3.40
2018-09-27T07:08:53.318Z,4.12
2018-09-27T07:11:22.546Z,5.37
2018-09-27T07:13:51.717Z,4.87
2018-09-27T07:16:20.923Z,5.95
2018-09-27T07:18:50.151Z,4.90
2018-09-27T07:21:19.316Z,6.20
2018-09-27T07:23:48.477Z,5.25
2018-09-27T07:26:17.705Z,4.90
2018-09-27T07:28:47.193Z,2.87
2018-09-27T07:31:16.504Z,4.12
2018-09-27T07:33:45.626Z,6.92
2018-09-27T07:36:14.851Z,2.83
2018-09-27T07:38:44.141Z,5.60
2018-09-27T07:41:13.240Z,4.22
2018-09-27T07:43:42.423Z,4.05
2018-09-27T07:46:11.646Z,3.92
2018-09-27T07:48:40.888Z,3.20
2018-09-27T07:51:10.107Z,4.55
2018-09-27T07:53:39.391Z,4.20
2018-09-27T07:56:08.827Z,4.78
2018-09-27T07:58:38.006Z,5.15
2018-09-27T08:01:07.209Z,3.87
2018-09-27T08:03:36.393Z,3.30
2018-09-27T08:06:05.622Z,4.28
2018-09-27T08:08:34.880Z,4.35
2018-09-27T08:11:04.150Z,5.53
2018-09-27T08:13:33.331Z,3.17
2018-09-27T08:16:03.096Z,4.15
2018-09-27T08:18:32.277Z,4.08
2018-09-27T08:21:01.629Z,5.33
2018-09-27T08:23:30.686Z,4.60
2018-09-27T08:25:59.934Z,4.30
2018-09-27T08:28:29.168Z,3.55
2018-09-27T08:30:58.480Z,3.27
2018-09-27T08:33:27.635Z,4.97
2018-09-27T08:35:56.883Z,3.83
2018-09-27T08:38:26.201Z,4.45
2018-09-27T08:40:55.378Z,4.97
2018-09-27T08:43:24.558Z,4.65
2018-09-27T08:45:53.819Z,3.67
2018-09-27T08:48:22.987Z,3.90
2018-09-27T08:50:52.195Z,3.52
2018-09-27T08:53:21.367Z,3.47
2018-09-27T08:55:50.626Z,4.12
2018-09-27T08:58:19.853Z,3.25
2018-09-27T09:00:49.086Z,3.35
2018-09-27T09:03:18.386Z,3.25
2018-09-27T09:05:47.599Z,2.77
2018-09-27T09:08:16.943Z,4.30
2018-09-27T09:10:46.166Z,2.58
2018-09-27T09:13:15.372Z,3.37
2018-09-27T09:15:44.571Z,3.62
2018-09-27T09:18:13.762Z,4.92
2018-09-27T09:20:42.959Z,3.15
2018-09-27T09:23:12.829Z,2.67
2018-09-27T09:25:42.040Z,2.42
2018-09-27T09:28:11.300Z,2.75
2018-09-27T09:30:40.492Z,4.35
2018-09-27T09:33:09.726Z,2.85
2018-09-27T09:35:38.948Z,3.42
2018-09-27T09:38:08.192Z,3.00
2018-09-27T09:40:37.385Z,3.80
2018-09-27T09:43:06.690Z,4.00
2018-09-27T09:45:35.860Z,7.53
2018-09-27T09:48:05.079Z,3.87
2018-09-27T09:50:34.255Z,3.95
2018-09-27T09:53:03.495Z,2.95
2018-09-27T09:55:32.705Z,4.72
2018-09-27T09:58:01.906Z,3.10
2018-09-27T10:00:31.122Z,3.25
2018-09-27T10:03:00.334Z,4.00
2018-09-27T10:05:29.544Z,3.33
2018-09-27T10:07:58.792Z,2.83
2018-09-27T10:10:28.080Z,3.05
2018-09-27T10:12:58.131Z,4.47
2018-09-27T10:15:27.417Z,2.10
2018-09-27T10:17:56.630Z,4.50
2018-09-27T10:20:25.882Z,1.30
2018-09-27T10:22:55.094Z,2.22
2018-09-27T10:25:24.279Z,2.22
2018-09-27T10:27:53.496Z,2.20
2018-09-27T10:30:22.794Z,4.35
2018-09-27T10:32:52.043Z,1.98
2018-09-27T10:35:21.242Z,2.37
2018-09-27T10:37:50.574Z,2.72
2018-09-27T10:40:19.803Z,1.85
2018-09-27T10:42:49.035Z,2.08
2018-09-27T10:45:18.219Z,2.05
2018-09-27T10:47:47.436Z,3.37
2018-09-27T10:50:16.633Z,1.75
2018-09-27T10:52:45.875Z,2.90
2018-09-27T10:55:15.054Z,1.75
2018-09-27T10:57:44.271Z,2.15
2018-09-27T11:00:18.947Z,1.85
2018-09-27T11:02:48.333Z,2.40
2018-09-27T11:05:17.558Z,1.98
2018-09-27T11:07:46.787Z,1.57
2018-09-27T11:10:16.043Z,3.05
2018-09-27T11:12:45.265Z,0.80
2018-09-27T11:15:14.559Z,1.67
2018-09-27T11:17:43.759Z,1.07
2018-09-27T11:20:12.947Z,1.67
2018-09-27T11:22:42.172Z,0.75
2018-09-27T11:25:11.383Z,1.00
2018-09-27T11:27:40.717Z,1.17
2018-09-27T11:30:15.219Z,2.17
2018-09-27T11:32:45.762Z,1.98
2018-09-27T11:35:15.130Z,0.62
2018-09-27T11:37:44.374Z,1.15
2018-09-27T11:40:13.575Z,1.40
2018-09-27T11:42:42.870Z,0.90
2018-09-27T11:45:12.034Z,0.98
2018-09-27T11:47:41.217Z,1.32
2018-09-27T11:50:10.436Z,0.65
2018-09-27T11:52:46.292Z,0.55
2018-09-27T11:55:15.503Z,1.00
2018-09-27T11:57:44.726Z,1.32
2018-09-27T12:00:14.695Z,2.30
2018-09-27T12:02:43.926Z,1.65
2018-09-27T12:05:13.160Z,2.65
2018-09-27T12:07:43.213Z,0.88
2018-09-27T12:10:12.547Z,0.80
2018-09-27T12:12:41.881Z,1.45
2018-09-27T12:15:11.113Z,0.45
2018-09-27T12:17:40.473Z,0.72
2018-09-27T12:20:09.963Z,0.78
2018-09-27T12:22:39.122Z,0.50
2018-09-27T12:25:08.410Z,0.50
2018-09-27T12:27:37.676Z,0.82
2018-09-27T12:30:07.235Z,0.80
2018-09-27T12:32:36.473Z,0.40
2018-09-27T12:35:05.853Z,1.10
2018-09-27T12:37:35.511Z,0.62
2018-09-27T12:40:04.789Z,0.55
2018-09-27T12:42:34.154Z,0.47
2018-09-27T12:45:03.459Z,0.98
2018-09-27T12:47:32.658Z,0.55
2018-09-27T12:50:02.032Z,1.25
2018-09-27T12:52:31.476Z,0.65
2018-09-27T12:55:00.615Z,1.20
2018-09-27T12:57:29.864Z,2.37
2018-09-27T12:59:59.179Z,1.32
2018-09-27T13:02:28.498Z,1.40
2018-09-27T13:04:58.090Z,0.70
2018-09-27T13:07:27.294Z,0.78
2018-09-27T13:09:56.694Z,0.93
2018-09-27T13:12:25.836Z,0.50
2018-09-27T13:14:55.035Z,0.68
2018-09-27T13:17:31.038Z,0.68
2018-09-27T13:20:01.148Z,0.88
2018-09-27T13:22:30.385Z,1.55
2018-09-27T13:24:59.658Z,1.82
2018-09-27T13:27:28.849Z,1.75
2018-09-27T13:29:58.105Z,1.30
2018-09-27T13:32:27.343Z,1.17
2018-09-27T13:34:56.589Z,1.35
2018-09-27T13:37:25.988Z,0.53
2018-09-27T13:39:55.287Z,1.40
2018-09-27T13:42:24.523Z,0.30
2018-09-27T13:44:54.087Z,3.50
2018-09-27T13:47:23.405Z,1.85
2018-09-27T13:49:52.680Z,1.67
2018-09-27T13:52:21.918Z,0.37
2018-09-27T13:54:51.204Z,0.75
2018-09-27T13:57:20.487Z,0.72
2018-09-27T13:59:50.535Z,1.02
2018-09-27T14:02:19.755Z,0.78
2018-09-27T14:04:49.037Z,1.57
2018-09-27T14:07:18.264Z,0.82
2018-09-27T14:09:47.524Z,0.95
2018-09-27T14:12:16.765Z,1.37
2018-09-27T14:14:46.090Z,1.07
2018-09-27T14:17:15.336Z,1.35
2018-09-27T14:19:44.674Z,0.60
2018-09-27T14:22:13.896Z,0.70
2018-09-27T14:24:43.211Z,1.07
2018-09-27T14:27:12.437Z,1.12
2018-09-27T14:29:41.667Z,1.37
2018-09-27T14:32:11.048Z,1.20
2018-09-27T14:34:40.238Z,0.70
2018-09-27T14:37:09.503Z,1.12
2018-09-27T14:39:38.724Z,1.42
2018-09-27T14:42:07.967Z,1.15
2018-09-27T14:44:37.207Z,1.05
2018-09-27T14:47:06.416Z,0.90
2018-09-27T14:49:35.657Z,1.57
2018-09-27T14:52:05.201Z,0.90
2018-09-27T14:54:34.507Z,1.30
2018-09-27T14:57:03.751Z,1.10
2018-09-27T14:59:33.191Z,1.05
2018-09-27T15:02:02.513Z,0.93
2018-09-27T15:04:31.763Z,1.02
2018-09-27T15:07:01.142Z,1.42
2018-09-27T15:09:30.441Z,0.80
2018-09-27T15:11:59.637Z,1.75
2018-09-27T15:14:28.920Z,1.55
2018-09-27T15:16:58.163Z,2.12
2018-09-27T15:19:27.408Z,1.05
2018-09-27T15:21:56.615Z,1.32
2018-09-27T15:24:25.855Z,1.27
2018-09-27T15:27:01.791Z,1.22
2018-09-27T15:29:31.148Z,1.80
2018-09-27T15:32:00.393Z,3.05
2018-09-27T15:34:29.616Z,1.10
2018-09-27T15:36:58.841Z,2.17
2018-09-27T15:39:28.055Z,2.22
2018-09-27T15:41:57.302Z,1.47
2018-09-27T15:44:26.716Z,1.52
2018-09-27T15:46:55.951Z,1.30
2018-09-27T15:49:25.178Z,2.33
2018-09-27T15:51:54.394Z,1.40
2018-09-27T15:54:23.641Z,2.22
2018-09-27T15:56:52.882Z,1.47
2018-09-27T15:59:22.109Z,0.70
2018-09-27T16:01:51.313Z,1.27
2018-09-27T16:04:20.699Z,1.98
2018-09-27T16:06:50.054Z,1.70
2018-09-27T16:09:19.303Z,2.12
2018-09-27T16:11:48.558Z,2.20
2018-09-27T16:14:17.843Z,2.08
2018-09-27T16:16:47.091Z,2.20
2018-09-27T16:19:16.328Z,2.05
2018-09-27T16:21:45.581Z,2.30
2018-09-27T16:24:14.835Z,2.67
2018-09-27T16:26:44.079Z,3.22
2018-09-27T16:29:13.414Z,2.60
2018-09-27T16:31:42.617Z,4.20
2018-09-27T16:34:11.833Z,1.60
2018-09-27T16:36:41.067Z,2.85
2018-09-27T16:39:10.992Z,2.58
2018-09-27T16:41:40.532Z,2.62
2018-09-27T16:44:09.739Z,2.55
2018-09-27T16:46:38.942Z,3.30
2018-09-27T16:49:08.364Z,3.90
2018-09-27T16:51:44.294Z,2.50
2018-09-27T16:54:14.307Z,3.05
2018-09-27T16:56:43.534Z,2.98
2018-09-27T16:59:12.949Z,2.47
2018-09-27T17:01:42.195Z,1.77
2018-09-27T17:04:11.423Z,9.73
2018-09-27T17:06:40.674Z,3.72
2018-09-27T17:09:10.362Z,3.52
2018-09-27T17:11:46.287Z,4.90
2018-09-27T17:14:15.472Z,3.92
2018-09-27T17:16:44.786Z,4.72
2018-09-27T17:19:13.927Z,3.42
2018-09-27T17:21:43.162Z,3.75
2018-09-27T17:24:12.367Z,3.80
2018-09-27T17:26:41.616Z,3.47
2018-09-27T17:29:10.807Z,4.05
2018-09-27T17:31:40.102Z,2.92
2018-09-27T17:34:09.266Z,3.52
2018-09-27T17:36:38.526Z,3.47
2018-09-27T17:39:08.652Z,2.37
2018-09-27T17:41:38.139Z,3.35
2018-09-27T17:44:07.654Z,3.22
2018-09-27T17:46:36.936Z,4.20
2018-09-27T17:49:06.114Z,2.90
2018-09-27T17:51:35.309Z,4.45
2018-09-27T17:54:04.539Z,3.20
2018-09-27T17:56:33.799Z,4.87
2018-09-27T17:59:03.063Z,2.85
2018-09-27T18:01:32.289Z,2.90
2018-09-27T18:04:01.724Z,4.08
2018-09-27T18:06:30.974Z,3.95
2018-09-27T18:09:00.163Z,5.50
2018-09-27T18:11:29.459Z,4.10
2018-09-27T18:13:58.643Z,3.77
2018-09-27T18:16:27.931Z,3.10
2018-09-27T18:18:57.139Z,4.03
2018-09-27T18:21:26.350Z,3.17
2018-09-27T18:23:55.571Z,4.55
2018-09-27T18:26:24.816Z,4.42
2018-09-27T18:28:54.028Z,4.05
2018-09-27T18:31:23.361Z,2.22
2018-09-27T18:33:52.649Z,2.95
2018-09-27T18:36:21.967Z,2.55
2018-09-27T18:38:51.210Z,3.80
2018-09-27T18:41:20.479Z,3.50
2018-09-27T18:43:49.705Z,2.72
2018-09-27T18:46:18.921Z,3.98
2018-09-27T18:48:48.107Z,2.45
2018-09-27T18:51:17.380Z,2.27
2018-09-27T18:53:46.522Z,3.65
2018-09-27T18:56:15.747Z,3.30
2018-09-27T18:58:44.922Z,2.60
2018-09-27T19:01:14.143Z,3.22
2018-09-27T19:03:43.358Z,6.87
2018-09-27T19:06:12.574Z,3.17
2018-09-27T19:08:41.767Z,3.05
2018-09-27T19:11:10.994Z,3.30
2018-09-27T19:13:40.349Z,3.12
2018-09-27T19:16:09.568Z,4.95
2018-09-27T19:18:38.754Z,4.53
2018-09-27T19:21:07.999Z,2.90
2018-09-27T19:23:37.551Z,3.05
2018-09-27T19:26:06.803Z,4.05
2018-09-27T19:28:35.980Z,2.85
2018-09-27T19:31:05.239Z,3.45
2018-09-27T19:33:34.418Z,3.42
2018-09-27T19:36:03.632Z,3.22
2018-09-27T19:38:32.839Z,4.15
2018-09-27T19:41:02.072Z,2.92
2018-09-27T19:43:31.275Z,2.95
2018-09-27T19:46:00.552Z,2.87
2018-09-27T19:48:29.769Z,4.60
2018-09-27T19:50:59.402Z,4.00
2018-09-27T19:53:28.606Z,3.15
2018-09-27T19:55:57.885Z,3.80
2018-09-27T19:58:27.177Z,2.90
2018-09-27T20:00:56.396Z,3.02
2018-09-27T20:03:25.583Z,4.50
2018-09-27T20:05:54.810Z,3.02
2018-09-27T20:08:24.031Z,3.52
2018-09-27T20:10:53.283Z,2.87
2018-09-27T20:13:22.776Z,3.60
2018-09-27T20:15:52.043Z,2.75
2018-09-27T20:18:21.269Z,2.87
2018-09-27T20:20:50.489Z,3.30
2018-09-27T20:23:19.690Z,3.10
2018-09-27T20:25:48.883Z,2.90
2018-09-27T20:28:18.177Z,4.28
2018-09-27T20:30:47.356Z,3.05
2018-09-27T20:33:16.613Z,4.15
2018-09-27T20:35:45.818Z,3.98
2018-09-27T20:38:15.127Z,3.05
2018-09-27T20:40:44.322Z,2.70
2018-09-27T20:43:13.548Z,2.98
2018-09-27T20:45:42.741Z,2.75
2018-09-27T20:48:11.945Z,3.72
2018-09-27T20:50:41.142Z,2.33
2018-09-27T20:53:10.355Z,3.27
2018-09-27T20:55:39.537Z,2.95
2018-09-27T20:58:08.754Z,2.77
2018-09-27T21:00:38.008Z,2.67
2018-09-27T21:03:07.283Z,3.15
2018-09-27T21:05:36.495Z,2.77
2018-09-27T21:08:05.700Z,2.52
2018-09-27T21:10:34.882Z,3.30
2018-09-27T21:13:04.090Z,3.00
2018-09-27T21:15:33.276Z,3.00
2018-09-27T21:18:02.550Z,2.50
2018-09-27T21:20:31.743Z,3.85
2018-09-27T21:23:00.984Z,2.70
2018-09-27T21:25:30.195Z,3.95
2018-09-27T21:27:59.444Z,3.75
2018-09-27T21:30:28.668Z,2.90
2018-09-27T21:32:57.875Z,3.22
2018-09-27T21:35:27.073Z,3.45
2018-09-27T21:37:56.282Z,3.30
2018-09-27T21:40:25.500Z,2.65
2018-09-27T21:42:54.731Z,2.83
2018-09-27T21:45:23.907Z,3.25
2018-09-27T21:47:53.114Z,4.75
2018-09-27T21:50:22.436Z,3.60
2018-09-27T21:52:51.550Z,3.55
2018-09-27T21:55:20.838Z,2.70
2018-09-27T21:57:50.057Z,3.37
2018-09-27T22:00:19.250Z,3.00
2018-09-27T22:02:48.455Z,3.33
2018-09-27T22:05:18.722Z,2.45
2018-09-27T22:07:47.962Z,2.83
2018-09-27T22:10:17.162Z,3.90
2018-09-27T22:12:46.370Z,4.47
2018-09-27T22:15:15.573Z,2.50
2018-09-27T22:17:44.819Z,5.62
2018-09-27T22:20:14.001Z,4.72
2018-09-27T22:22:43.227Z,3.62
2018-09-27T22:25:12.452Z,4.00
2018-09-27T22:27:41.645Z,2.60
2018-09-27T22:30:10.826Z,4.05
2018-09-27T22:32:40.228Z,4.08
2018-09-27T22:35:09.409Z,4.25
2018-09-27T22:37:38.612Z,3.00
2018-09-27T22:40:07.817Z,4.15
2018-09-27T22:42:37.019Z,2.47
2018-09-27T22:45:06.838Z,2.33
2018-09-27T22:47:36.062Z,2.40
2018-09-27T22:50:05.335Z,4.42
2018-09-27T22:52:34.534Z,3.27
2018-09-27T22:55:03.747Z,2.45
2018-09-27T22:57:32.961Z,4.97
2018-09-27T23:00:02.156Z,3.60
2018-09-27T23:02:31.370Z,4.00
2018-09-27T23:05:00.581Z,2.62
2018-09-27T23:07:29.811Z,3.58
2018-09-27T23:09:58.999Z,4.58
2018-09-27T23:12:28.218Z,2.83
2018-09-27T23:14:57.402Z,2.83
2018-09-27T23:17:26.634Z,2.55
2018-09-27T23:19:55.804Z,2.65
2018-09-27T23:22:24.990Z,2.85
2018-09-27T23:24:54.222Z,2.50
2018-09-27T23:27:23.406Z,2.98
2018-09-27T23:29:52.600Z,3.17
2018-09-27T23:32:21.778Z,3.62
2018-09-27T23:34:51.008Z,2.92
2018-09-27T23:37:20.234Z,3.08
2018-09-27T23:39:49.433Z,3.05
2018-09-27T23:42:18.666Z,3.22
2018-09-27T23:44:47.874Z,3.90
2018-09-27T23:47:17.099Z,4.50
2018-09-27T23:49:46.311Z,3.75
2018-09-27T23:52:15.507Z,3.95
2018-09-27T23:54:44.706Z,3.75
2018-09-27T23:57:13.938Z,4.65
2018-09-27T23:59:43.150Z,3.30
